Time;durP1;ratioP1;P1;durP2;ratioP2;P2;SDS_P1;SDS_P2;PMS_P1;PMS_P2;Temp;Humidity;BMP_temperature;BMP_pressure;BME280_temperature;BME280_humidity;BME280_pressure;Samples;Min_cycle;Max_cycle;Signal;HPM_P1;HPM_P2
2022/09/29 00:01:08;;;;;;;17.50;7.22;;;8.90;99.90;;;;;;5028398;28;20037;-76
2022/09/29 00:03:33;;;;;;;14.68;5.97;;;8.90;99.90;;;;;;5031219;28;20025;-77
2022/09/29 00:05:59;;;;;;;14.20;6.55;;;8.80;99.90;;;;;;5031614;28;20021;-77
2022/09/29 00:08:27;;;;;;;20.45;7.90;;;8.90;99.90;;;;;;5031796;28;20057;-77
2022/09/29 00:10:53;;;;;;;17.98;6.65;;;8.80;99.90;;;;;;5032060;28;20060;-76
2022/09/29 00:13:19;;;;;;;17.27;7.05;;;8.80;99.90;;;;;;5032082;28;20037;-77
2022/09/29 00:15:55;;;;;;;15.05;6.35;;;8.90;99.90;;;;;;5031122;28;20041;-77
2022/09/29 00:18:20;;;;;;;16.20;6.72;;;8.80;99.90;;;;;;5031377;28;20475;-77
2022/09/29 00:21:05;;;;;;;14.63;6.18;;;8.80;99.90;;;;;;5031100;28;20251;-77
2022/09/29 00:23:32;;;;;;;15.02;6.35;;;8.90;99.90;;;;;;5031276;28;20065;-77
2022/09/29 00:26:10;;;;;;;14.43;6.65;;;8.80;99.90;;;;;;5032580;28;20026;-76
2022/09/29 00:28:38;;;;;;;14.93;6.15;;;8.80;99.90;;;;;;5033041;28;20109;-76
2022/09/29 00:31:04;;;;;;;13.68;6.10;;;8.70;99.90;;;;;;5032332;28;20028;-76
2022/09/29 00:33:35;;;;;;;14.38;6.32;;;8.70;99.90;;;;;;5034760;28;20044;-77
2022/09/29 00:36:07;;;;;;;17.10;6.95;;;8.70;99.90;;;;;;5036021;28;20103;-76
2022/09/29 00:38:33;;;;;;;16.95;6.80;;;8.70;99.90;;;;;;5036083;28;20033;-77
2022/09/29 00:40:59;;;;;;;18.40;7.35;;;8.70;99.90;;;;;;5036455;28;20104;-76
2022/09/29 00:43:50;;;;;;;16.20;6.70;;;8.70;99.90;;;;;;5036571;28;20104;-77
2022/09/29 00:46:44;;;;;;;16.70;7.45;;;8.70;99.90;;;;;;5035989;28;20037;-76
2022/09/29 00:49:18;;;;;;;16.75;6.63;;;8.70;99.90;;;;;;5033388;28;20132;-77
2022/09/29 00:52:17;;;;;;;19.98;7.68;;;8.70;99.90;;;;;;5035450;28;20034;-77
2022/09/29 00:54:57;;;;;;;18.35;7.63;;;8.60;99.90;;;;;;5036312;28;20026;-77
2022/09/29 00:57:29;;;;;;;21.35;8.18;;;8.60;99.90;;;;;;5034692;28;20037;-77
2022/09/29 01:00:01;;;;;;;16.95;8.10;;;8.60;99.90;;;;;;5034655;28;20022;-76
2022/09/29 01:02:27;;;;;;;21.63;7.50;;;8.60;99.90;;;;;;5034747;28;20522;-77
2022/09/29 01:04:54;;;;;;;20.90;8.13;;;8.60;99.90;;;;;;5034593;28;20433;-76
2022/09/29 01:07:22;;;;;;;21.20;8.32;;;8.50;99.90;;;;;;5034777;28;20087;-77
2022/09/29 01:09:49;;;;;;;18.13;7.35;;;8.50;99.90;;;;;;5035961;28;20181;-77
2022/09/29 01:12:16;;;;;;;15.80;6.93;;;8.50;99.90;;;;;;5034836;28;20053;-77
2022/09/29 01:14:42;;;;;;;18.83;7.85;;;8.50;99.90;;;;;;5035354;28;20025;-77
2022/09/29 01:17:08;;;;;;;18.38;7.93;;;8.50;99.90;;;;;;5035301;28;20091;-77
2022/09/29 01:19:45;;;;;;;18.10;8.38;;;8.50;99.90;;;;;;5035261;28;20029;-76
2022/09/29 01:22:48;;;;;;;16.85;7.70;;;8.50;99.90;;;;;;5035134;28;20104;-77
2022/09/29 01:25:32;;;;;;;;;;;8.50;99.90;;;;;;5035328;28;20056;-77
2022/09/29 01:28:09;;;;;;;19.05;8.40;;;8.50;99.90;;;;;;5034882;28;19909;-77
2022/09/29 01:30:56;;;;;;;17.40;8.52;;;8.40;99.90;;;;;;5033248;28;20508;-77
2022/09/29 01:33:46;;;;;;;20.00;8.60;;;8.40;99.90;;;;;;5035293;28;20425;-77
2022/09/29 01:36:30;;;;;;;18.80;8.20;;;8.40;99.90;;;;;;5034348;28;20033;-77
2022/09/29 01:39:23;;;;;;;19.27;7.47;;;8.30;99.90;;;;;;5035000;28;20122;-77
2022/09/29 01:42:11;;;;;;;18.92;8.43;;;8.30;99.90;;;;;;5035126;28;20436;-77
2022/09/29 01:44:53;;;;;;;18.33;8.35;;;8.30;99.90;;;;;;5034014;28;20042;-77
2022/09/29 01:47:24;;;;;;;22.60;9.73;;;8.30;99.90;;;;;;5034560;28;20459;-77
2022/09/29 01:49:54;;;;;;;21.17;9.30;;;8.40;99.90;;;;;;5034637;28;20049;-77
2022/09/29 01:52:24;;;;;;;21.17;10.10;;;8.30;99.90;;;;;;5034220;28;20047;-77
2022/09/29 01:55:00;;;;;;;23.27;9.93;;;8.30;99.90;;;;;;5033927;28;20111;-77
2022/09/29 01:57:34;;;;;;;20.67;9.10;;;8.30;99.90;;;;;;5035651;28;20534;-77
2022/09/29 02:00:08;;;;;;;19.20;8.63;;;8.30;99.90;;;;;;5034300;28;20127;-77
2022/09/29 02:02:48;;;;;;;22.80;9.98;;;8.30;99.90;;;;;;5033967;28;20033;-77
2022/09/29 02:05:19;;;;;;;20.02;9.70;;;8.20;99.90;;;;;;5034546;28;20029;-77
2022/09/29 02:07:46;;;;;;;25.02;10.57;;;8.20;99.90;;;;;;5034484;28;20036;-77
2022/09/29 02:10:34;;;;;;;23.00;9.88;;;8.20;99.90;;;;;;5040898;28;20476;-77
2022/09/29 02:13:04;;;;;;;19.70;9.82;;;8.30;99.90;;;;;;5039526;28;20095;-77
2022/09/29 02:15:35;;;;;;;19.85;9.63;;;8.30;99.90;;;;;;5034343;28;20052;-77
2022/09/29 02:18:10;;;;;;;20.38;9.93;;;8.20;99.90;;;;;;5034657;28;20022;-76
2022/09/29 02:20:36;;;;;;;22.67;9.45;;;8.20;99.90;;;;;;5025842;28;20031;-77
2022/09/29 02:23:02;;;;;;;21.98;9.60;;;8.20;99.90;;;;;;5034280;28;20025;-76
2022/09/29 02:25:28;;;;;;;18.55;9.23;;;8.10;99.90;;;;;;5034644;28;20109;-76
2022/09/29 02:27:54;;;;;;;19.30;9.60;;;8.10;99.90;;;;;;5034523;28;20087;-76
2022/09/29 02:30:20;;;;;;;22.45;10.30;;;8.10;99.90;;;;;;5034203;28;20037;-76
2022/09/29 02:32:46;;;;;;;22.15;10.57;;;8.10;99.90;;;;;;5034232;28;20084;-76
2022/09/29 02:35:14;;;;;;;20.52;10.63;;;8.10;99.90;;;;;;5033953;28;20420;-76
2022/09/29 02:38:04;;;;;;;23.95;10.80;;;8.10;99.90;;;;;;5033403;28;20034;-76
2022/09/29 02:40:33;;;;;;;25.00;11.00;;;8.10;99.90;;;;;;5034010;28;20033;-76
2022/09/29 02:43:11;;;;;;;21.70;10.63;;;8.10;99.90;;;;;;5033552;28;20061;-76
2022/09/29 02:45:40;;;;;;;23.23;11.13;;;8.00;99.90;;;;;;5033589;28;20449;-77
2022/09/29 02:48:13;;;;;;;22.70;10.75;;;8.00;99.90;;;;;;5033658;28;20099;-77
2022/09/29 02:50:50;;;;;;;21.02;10.73;;;8.00;99.90;;;;;;5033730;28;20033;-77
2022/09/29 02:53:38;;;;;;;26.55;10.38;;;8.00;99.90;;;;;;5033922;28;20040;-77
2022/09/29 02:56:42;;;;;;;22.48;10.88;;;7.90;99.90;;;;;;5032599;28;20039;-76
2022/09/29 02:59:18;;;;;;;21.67;9.98;;;7.90;99.90;;;;;;5001654;28;20046;-77
2022/09/29 03:01:52;;;;;;;22.83;10.57;;;7.80;99.90;;;;;;5032802;28;20037;-77
2022/09/29 03:04:20;;;;;;;24.35;11.82;;;7.80;99.90;;;;;;5032515;28;20083;-76
2022/09/29 03:06:46;;;;;;;24.85;12.00;;;7.80;99.90;;;;;;5033659;28;20108;-76
2022/09/29 03:09:11;;;;;;;28.15;12.30;;;7.80;99.90;;;;;;5033285;28;20109;-76
2022/09/29 03:11:37;;;;;;;25.40;12.13;;;7.90;99.90;;;;;;5032725;28;20053;-76
2022/09/29 03:14:03;;;;;;;25.95;12.25;;;7.90;99.90;;;;;;5033274;28;20143;-76
2022/09/29 03:16:29;;;;;;;26.38;12.85;;;7.90;99.90;;;;;;5032947;28;20390;-77
2022/09/29 03:18:55;;;;;;;25.35;12.25;;;7.90;99.90;;;;;;5033077;28;20041;-77
2022/09/29 03:21:21;;;;;;;24.02;11.90;;;7.90;99.90;;;;;;5033320;28;20040;-77
2022/09/29 03:23:47;;;;;;;24.05;10.80;;;7.80;99.90;;;;;;5033024;28;20108;-77
2022/09/29 03:26:13;;;;;;;24.35;10.55;;;7.80;99.90;;;;;;5033184;28;20052;-77
2022/09/29 03:28:38;;;;;;;24.23;11.30;;;7.80;99.90;;;;;;5032448;28;20038;-77
2022/09/29 03:31:05;;;;;;;41.28;12.80;;;7.80;99.90;;;;;;5032713;28;20029;-77
2022/09/29 03:33:32;;;;;;;172.82;24.02;;;7.80;99.90;;;;;;5032376;28;20044;-76
2022/09/29 03:35:59;;;;;;;54.60;14.60;;;7.90;99.90;;;;;;5032799;28;20033;-76
2022/09/29 03:38:24;;;;;;;105.65;19.05;;;7.90;99.90;;;;;;5033011;28;20033;-76
2022/09/29 03:40:50;;;;;;;28.92;13.63;;;8.00;99.90;;;;;;5032535;28;20092;-77
2022/09/29 03:43:15;;;;;;;31.20;14.07;;;8.00;99.90;;;;;;5032933;28;20036;-77
2022/09/29 03:45:49;;;;;;;34.38;13.63;;;8.00;99.90;;;;;;5032526;28;20021;-76
2022/09/29 03:48:15;;;;;;;30.55;13.88;;;8.00;99.90;;;;;;5031742;28;20083;-77
2022/09/29 03:50:40;;;;;;;62.83;16.48;;;7.90;99.90;;;;;;5032832;28;20017;-76
2022/09/29 03:53:06;;;;;;;28.67;13.65;;;8.00;99.90;;;;;;5032071;28;20037;-78
2022/09/29 03:55:32;;;;;;;36.40;14.35;;;8.00;99.90;;;;;;5031512;28;20486;-78
2022/09/29 03:57:57;;;;;;;30.48;13.75;;;8.00;99.90;;;;;;5032532;28;20033;-77
2022/09/29 04:00:23;;;;;;;28.80;13.90;;;7.90;99.90;;;;;;5031709;28;20041;-78
2022/09/29 04:02:48;;;;;;;147.23;22.95;;;7.90;99.90;;;;;;5031935;28;20045;-77
2022/09/29 04:05:14;;;;;;;47.80;14.75;;;7.90;99.90;;;;;;5031549;28;20037;-77
2022/09/29 04:07:40;;;;;;;39.95;14.75;;;7.90;99.90;;;;;;5031796;28;20045;-77
2022/09/29 04:10:06;;;;;;;192.80;28.20;;;7.90;99.90;;;;;;5032016;28;20033;-77
2022/09/29 04:12:32;;;;;;;28.63;13.82;;;7.90;99.90;;;;;;5032197;28;20045;-77
2022/09/29 04:14:57;;;;;;;64.95;16.58;;;7.90;99.90;;;;;;5032186;28;20475;-77
2022/09/29 04:17:23;;;;;;;31.00;14.13;;;7.90;99.90;;;;;;5031863;28;20029;-77
2022/09/29 04:19:48;;;;;;;28.45;12.85;;;7.90;99.90;;;;;;5031605;28;20025;-77
2022/09/29 04:22:17;;;;;;;26.75;13.20;;;7.90;99.90;;;;;;5031728;28;20034;-77
2022/09/29 04:24:43;;;;;;;124.50;20.63;;;7.90;99.90;;;;;;5032267;28;20026;-77
2022/09/29 04:27:08;;;;;;;48.00;15.15;;;7.80;99.90;;;;;;5032581;28;20460;-77
2022/09/29 04:29:34;;;;;;;31.85;14.50;;;7.80;99.90;;;;;;5031636;28;20033;-77
2022/09/29 04:32:00;;;;;;;32.40;14.63;;;7.80;99.90;;;;;;5031844;28;20403;-76
2022/09/29 04:34:25;;;;;;;31.33;14.57;;;7.80;99.90;;;;;;5031820;28;20030;-76
2022/09/29 04:36:52;;;;;;;62.10;18.58;;;7.80;99.90;;;;;;5031968;28;20048;-77
2022/09/29 04:39:17;;;;;;;30.13;14.73;;;7.80;99.90;;;;;;5032001;28;20033;-77
2022/09/29 04:41:43;;;;;;;30.17;14.10;;;7.80;99.90;;;;;;5031065;28;20029;-76
2022/09/29 04:44:09;;;;;;;30.58;14.80;;;7.70;99.90;;;;;;5031602;28;20029;-77
2022/09/29 04:46:34;;;;;;;29.70;14.75;;;7.70;99.90;;;;;;5031923;28;20172;-77
2022/09/29 04:49:00;;;;;;;35.72;14.90;;;7.70;99.90;;;;;;5031936;28;20065;-77
2022/09/29 04:51:25;;;;;;;42.50;16.20;;;7.70;99.90;;;;;;5032016;28;20483;-76
2022/09/29 04:53:52;;;;;;;35.95;16.10;;;7.70;99.90;;;;;;5028793;28;20034;-77
2022/09/29 04:56:17;;;;;;;43.92;16.25;;;7.60;99.90;;;;;;5032093;28;20034;-77
2022/09/29 04:58:43;;;;;;;39.33;16.50;;;7.60;99.90;;;;;;5030324;28;20021;-77
2022/09/29 05:01:14;;;;;;;39.97;17.15;;;7.60;99.90;;;;;;5032037;28;20061;-77
2022/09/29 05:03:40;;;;;;;179.60;27.48;;;7.60;99.90;;;;;;5031290;28;20104;-77
2022/09/29 05:06:08;;;;;;;36.97;17.20;;;7.60;99.90;;;;;;5031959;28;20040;-77
2022/09/29 05:08:33;;;;;;;40.35;17.08;;;7.60;99.90;;;;;;5032092;28;20060;-77
2022/09/29 05:11:04;;;;;;;44.58;18.63;;;7.60;99.90;;;;;;5031974;28;20077;-77
2022/09/29 05:13:29;;;;;;;86.35;20.65;;;7.60;99.90;;;;;;5031090;28;20049;-77
2022/09/29 05:15:56;;;;;;;39.38;18.10;;;7.60;99.90;;;;;;5032456;28;20041;-78
2022/09/29 05:18:22;;;;;;;37.58;17.23;;;7.60;99.90;;;;;;5033334;28;20116;-77
2022/09/29 05:20:48;;;;;;;40.15;17.85;;;7.60;99.90;;;;;;5035809;28;20559;-77
2022/09/29 05:23:14;;;;;;;186.68;30.65;;;7.60;99.90;;;;;;5035480;28;20040;-77
2022/09/29 05:25:39;;;;;;;43.63;19.33;;;7.60;99.90;;;;;;5035886;28;20367;-77
2022/09/29 05:28:05;;;;;;;46.50;19.98;;;7.50;99.90;;;;;;5035253;28;20065;-77
2022/09/29 05:30:30;;;;;;;48.33;21.55;;;7.50;99.90;;;;;;5035673;28;20037;-77
2022/09/29 05:32:56;;;;;;;57.72;23.70;;;7.50;99.90;;;;;;5034620;28;20041;-77
2022/09/29 05:35:21;;;;;;;48.15;21.17;;;7.50;99.90;;;;;;5033478;28;20117;-76
2022/09/29 05:37:47;;;;;;;56.35;21.60;;;7.40;99.90;;;;;;5035274;28;20029;-77
2022/09/29 05:40:13;;;;;;;61.17;22.45;;;7.40;99.90;;;;;;5035213;28;20459;-77
2022/09/29 05:42:39;;;;;;;72.18;22.20;;;7.40;99.90;;;;;;5035176;28;20043;-77
2022/09/29 05:45:09;;;;;;;125.15;25.27;;;7.40;99.90;;;;;;5035553;28;20033;-77
2022/09/29 05:47:35;;;;;;;75.78;22.98;;;7.50;99.90;;;;;;5030383;28;20091;-77
2022/09/29 05:50:02;;;;;;;66.15;20.98;;;7.50;99.90;;;;;;5035571;28;20033;-77
2022/09/29 05:52:28;;;;;;;223.13;34.08;;;7.50;99.90;;;;;;5034723;28;20068;-77
2022/09/29 05:54:53;;;;;;;146.00;26.25;;;7.50;99.90;;;;;;5037739;28;20060;-78
2022/09/29 05:57:19;;;;;;;113.50;26.15;;;7.50;99.90;;;;;;5039103;28;20033;-77
2022/09/29 05:59:44;;;;;;;105.70;23.05;;;7.60;99.90;;;;;;5040548;28;20105;-78
2022/09/29 06:02:10;;;;;;;90.82;22.05;;;7.60;99.90;;;;;;5036985;28;20033;-77
2022/09/29 06:04:35;;;;;;;61.80;19.73;;;7.70;99.90;;;;;;5037972;28;20033;-77
2022/09/29 06:07:01;;;;;;;73.18;20.55;;;7.70;99.90;;;;;;5040869;28;20081;-77
2022/09/29 06:09:27;;;;;;;39.58;16.75;;;7.70;99.90;;;;;;5034972;28;20511;-77
2022/09/29 06:11:52;;;;;;;55.50;17.90;;;7.70;99.90;;;;;;5034651;28;20396;-77
2022/09/29 06:14:18;;;;;;;50.67;17.27;;;7.70;99.90;;;;;;5035401;28;20075;-77
2022/09/29 06:16:43;;;;;;;74.85;19.40;;;7.70;99.90;;;;;;5034572;28;20033;-77
2022/09/29 06:19:09;;;;;;;60.28;18.05;;;7.80;99.90;;;;;;5032116;28;20026;-77
2022/09/29 06:21:36;;;;;;;51.83;18.58;;;7.90;99.90;;;;;;5042201;28;20029;-77
2022/09/29 06:24:02;;;;;;;61.72;18.88;;;7.90;99.90;;;;;;5035049;28;20060;-77
2022/09/29 06:26:28;;;;;;;41.70;16.85;;;8.00;99.90;;;;;;5033984;28;20099;-77
2022/09/29 06:28:55;;;;;;;35.50;15.98;;;8.10;99.90;;;;;;5034616;28;20124;-77
2022/09/29 06:31:24;;;;;;;34.42;15.68;;;8.20;99.90;;;;;;5032589;28;20041;-77
2022/09/29 06:33:49;;;;;;;45.53;17.65;;;8.20;99.90;;;;;;5035654;28;20044;-77
2022/09/29 06:39:13;;;;;;;50.33;15.52;;;8.40;99.90;;;;;;5036171;28;20489;-77
2022/09/29 06:41:38;;;;;;;38.95;15.80;;;8.50;99.90;;;;;;5037222;28;20037;-77
2022/09/29 06:44:04;;;;;;;48.60;15.40;;;8.50;99.90;;;;;;5035632;28;20029;-78
2022/09/29 06:46:30;;;;;;;36.38;14.40;;;8.70;99.90;;;;;;5036480;28;20026;-77
2022/09/29 06:48:56;;;;;;;31.15;12.90;;;8.70;99.90;;;;;;5036301;28;20033;-78
2022/09/29 06:51:23;;;;;;;30.08;13.88;;;8.80;99.90;;;;;;5038521;28;20047;-77
2022/09/29 06:53:49;;;;;;;38.42;12.93;;;8.90;99.90;;;;;;5040198;28;20045;-77
2022/09/29 06:56:15;;;;;;;115.25;20.00;;;8.80;99.90;;;;;;5027293;28;20031;-77
2022/09/29 06:58:41;;;;;;;35.25;14.45;;;8.80;99.90;;;;;;5034502;28;20025;-77
2022/09/29 07:01:06;;;;;;;57.85;16.33;;;9.00;99.90;;;;;;5033830;28;20040;-77
2022/09/29 07:03:34;;;;;;;39.72;12.88;;;9.00;99.90;;;;;;5032936;28;20021;-77
2022/09/29 07:06:08;;;;;;;76.75;17.08;;;9.10;99.90;;;;;;5049176;28;20034;-78
2022/09/29 07:08:37;;;;;;;174.68;23.52;;;9.20;99.90;;;;;;5033041;28;20038;-78
2022/09/29 07:11:02;;;;;;;62.60;14.55;;;9.40;99.90;;;;;;5032642;28;20498;-78
2022/09/29 07:13:28;;;;;;;44.22;13.43;;;9.50;99.90;;;;;;5033544;28;20037;-78
2022/09/29 07:15:54;;;;;;;92.47;16.63;;;9.70;99.90;;;;;;5031837;28;20029;-78
2022/09/29 07:18:20;;;;;;;89.70;16.02;;;9.80;99.90;;;;;;5033801;28;20032;-78
2022/09/29 07:20:46;;;;;;;118.35;19.77;;;10.00;99.90;;;;;;5052981;28;20164;-78
2022/09/29 07:23:12;;;;;;;84.00;16.60;;;10.10;99.90;;;;;;5053097;28;20033;-78
2022/09/29 07:25:38;;;;;;;46.95;10.77;;;10.30;99.90;;;;;;5053212;28;20032;-78
2022/09/29 07:28:04;;;;;;;68.32;14.40;;;10.40;99.90;;;;;;5053180;28;20079;-78
2022/09/29 07:30:30;;;;;;;49.45;13.90;;;10.40;99.90;;;;;;5053596;28;20437;-77
2022/09/29 07:32:56;;;;;;;64.13;12.90;;;10.50;99.90;;;;;;5053185;28;20039;-77
2022/09/29 07:35:22;;;;;;;46.33;13.60;;;10.70;99.90;;;;;;5053576;28;20127;-77
2022/09/29 07:37:52;;;;;;;60.03;13.98;;;10.80;99.90;;;;;;5053387;28;20036;-77
2022/09/29 07:40:21;;;;;;;42.30;13.07;;;10.90;99.90;;;;;;5053273;28;20033;-77
2022/09/29 07:42:47;;;;;;;30.80;12.40;;;11.10;99.90;;;;;;5052801;28;20032;-77
2022/09/29 07:45:13;;;;;;;28.23;11.75;;;11.30;99.90;;;;;;5053203;28;20035;-76
2022/09/29 07:47:38;;;;;;;31.60;12.15;;;11.40;99.90;;;;;;5052771;28;20032;-76
2022/09/29 07:50:04;;;;;;;38.17;12.38;;;11.50;99.90;;;;;;5053046;28;20021;-77
2022/09/29 07:52:30;;;;;;;32.65;12.85;;;11.60;99.90;;;;;;5053064;28;20076;-76
2022/09/29 07:54:55;;;;;;;30.98;12.25;;;11.70;99.90;;;;;;5050296;28;20049;-76
2022/09/29 07:57:22;;;;;;;26.73;11.55;;;11.90;99.90;;;;;;5033305;28;20033;-76
2022/09/29 07:59:47;;;;;;;33.58;12.68;;;12.10;99.90;;;;;;5032875;28;20380;-77
2022/09/29 08:02:13;;;;;;;37.38;12.00;;;12.30;99.90;;;;;;5032707;28;20029;-77
2022/09/29 08:04:39;;;;;;;24.80;11.98;;;12.50;99.90;;;;;;5032630;28;20052;-77
2022/09/29 08:07:05;;;;;;;45.33;11.90;;;12.70;99.90;;;;;;5032927;28;20060;-77
2022/09/29 08:09:30;;;;;;;28.40;11.70;;;13.00;99.90;;;;;;5032832;28;20032;-77
2022/09/29 08:11:56;;;;;;;27.13;11.65;;;13.20;99.90;;;;;;5032667;28;20451;-77
2022/09/29 08:14:21;;;;;;;29.63;10.98;;;13.40;99.90;;;;;;5033099;28;20414;-77
2022/09/29 08:16:47;;;;;;;22.30;10.50;;;13.70;99.90;;;;;;5032786;28;20452;-78
2022/09/29 08:19:13;;;;;;;26.98;10.20;;;13.90;99.90;;;;;;5032747;28;20447;-77
2022/09/29 08:21:38;;;;;;;26.55;10.52;;;14.20;99.90;;;;;;5032744;28;20148;-77
2022/09/29 08:24:05;;;;;;;30.90;10.85;;;14.40;99.90;;;;;;5032859;28;20021;-77
2022/09/29 08:26:34;;;;;;;26.85;10.82;;;14.70;99.90;;;;;;5032584;28;20030;-77
2022/09/29 08:29:01;;;;;;;19.20;9.45;;;15.10;99.90;;;;;;5032440;28;20036;-77
2022/09/29 08:31:27;;;;;;;21.77;11.13;;;15.50;99.90;;;;;;5032125;28;20036;-77
2022/09/29 08:33:54;;;;;;;24.38;10.23;;;15.70;99.90;;;;;;5032090;28;20359;-77
2022/09/29 08:36:20;;;;;;;21.00;10.50;;;15.90;99.90;;;;;;5032396;28;20037;-77
2022/09/29 08:38:51;;;;;;;18.38;10.85;;;16.20;99.90;;;;;;5032333;28;20371;-77
2022/09/29 08:41:27;;;;;;;17.95;9.57;;;16.50;99.90;;;;;;5031864;28;20033;-77
2022/09/29 08:43:59;;;;;;;23.70;9.75;;;17.00;99.90;;;;;;5031346;28;20425;-77
2022/09/29 08:46:34;;;;;;;18.77;9.93;;;17.40;99.90;;;;;;5032484;28;20108;-77
2022/09/29 08:49:05;;;;;;;17.00;9.55;;;17.80;99.90;;;;;;5031031;28;20025;-76
2022/09/29 08:51:38;;;;;;;16.97;10.03;;;18.10;99.90;;;;;;5032670;28;20036;-76
2022/09/29 08:54:28;;;;;;;15.75;8.90;;;18.40;99.90;;;;;;5034631;28;20036;-76
2022/09/29 08:56:53;;;;;;;17.58;9.73;;;18.50;99.90;;;;;;5035497;28;20538;-76
2022/09/29 08:59:19;;;;;;;18.27;10.07;;;18.50;99.90;;;;;;5036055;28;20072;-76
2022/09/29 09:02:04;;;;;;;17.63;9.88;;;18.80;99.90;;;;;;5035985;28;20018;-76
2022/09/29 09:04:56;;;;;;;16.58;9.07;;;19.30;99.90;;;;;;5033297;28;20017;-76
2022/09/29 09:07:34;;;;;;;16.75;9.45;;;19.70;99.90;;;;;;5024436;28;20034;-76
2022/09/29 09:10:30;;;;;;;16.35;9.20;;;20.30;99.90;;;;;;5015826;28;20026;-76
2022/09/29 09:13:16;;;;;;;17.02;9.55;;;21.20;99.90;;;;;;5015589;28;20071;-76
2022/09/29 09:15:53;;;;;;;14.30;8.73;;;22.10;99.90;;;;;;5016253;28;20073;-76
2022/09/29 09:18:55;;;;;;;16.48;8.45;;;22.90;99.90;;;;;;5016309;28;20099;-76
2022/09/29 09:21:40;;;;;;;14.35;8.95;;;23.50;97.30;;;;;;5034508;28;20029;-76
2022/09/29 09:24:30;;;;;;;13.77;8.45;;;23.90;96.80;;;;;;5035890;28;20037;-77
2022/09/29 09:26:58;;;;;;;17.05;8.75;;;24.60;96.20;;;;;;5035825;28;20025;-76
2022/09/29 09:29:33;;;;;;;15.40;9.13;;;25.10;95.50;;;;;;5015816;28;20743;-77
2022/09/29 09:32:11;;;;;;;13.90;8.25;;;25.60;94.50;;;;;;5015571;28;20034;-77
2022/09/29 09:34:49;;;;;;;15.45;9.10;;;26.20;94.50;;;;;;5016076;28;20364;-77
2022/09/29 09:37:22;;;;;;;14.68;9.00;;;26.80;93.10;;;;;;5030353;28;20068;-77
2022/09/29 09:40:03;;;;;;;13.32;8.73;;;27.20;91.60;;;;;;5036702;28;20037;-78
2022/09/29 09:42:35;;;;;;;14.38;9.10;;;27.60;90.40;;;;;;5035445;28;20037;-77
2022/09/29 09:45:36;;;;;;;13.57;8.25;;;27.90;89.60;;;;;;5034894;28;20036;-77
2022/09/29 09:48:05;;;;;;;17.30;9.95;;;28.40;89.20;;;;;;5037297;28;20033;-77
2022/09/29 09:50:41;;;;;;;13.82;8.63;;;28.80;87.60;;;;;;5036946;28;20035;-76
2022/09/29 09:53:27;;;;;;;14.77;9.20;;;29.10;85.30;;;;;;5035381;28;20128;-76
2022/09/29 09:56:06;;;;;;;13.32;8.93;;;29.30;85.10;;;;;;5024403;28;20022;-76
2022/09/29 09:58:57;;;;;;;15.95;9.73;;;29.60;87.00;;;;;;5014325;28;20024;-76
2022/09/29 10:01:24;;;;;;;13.98;8.27;;;29.90;84.20;;;;;;5013998;28;20018;-76
2022/09/29 10:03:51;;;;;;;12.68;8.27;;;30.00;82.90;;;;;;5014897;28;20076;-76
2022/09/29 10:06:16;;;;;;;13.88;7.85;;;30.20;82.60;;;;;;5013719;28;20037;-75
2022/09/29 10:08:43;;;;;;;11.98;7.95;;;30.50;82.30;;;;;;5014915;28;20117;-76
2022/09/29 10:11:15;;;;;;;13.85;8.20;;;30.60;79.80;;;;;;5014835;28;20050;-75
2022/09/29 10:13:41;;;;;;;11.93;7.70;;;30.60;79.20;;;;;;5015049;28;20054;-75
2022/09/29 10:16:15;;;;;;;9.43;6.22;;;30.60;80.50;;;;;;5034038;28;20030;-75
2022/09/29 10:18:51;;;;;;;9.90;6.63;;;30.70;77.50;;;;;;5034538;28;20092;-75
2022/09/29 10:21:39;;;;;;;9.43;5.38;;;30.60;76.20;;;;;;5034696;28;20060;-76
2022/09/29 10:24:26;;;;;;;9.27;5.57;;;30.50;75.20;;;;;;5034629;28;20035;-75
2022/09/29 10:26:54;;;;;;;10.48;6.05;;;30.40;76.50;;;;;;5033806;28;20502;-75
2022/09/29 10:29:41;;;;;;;7.43;5.40;;;30.40;76.50;;;;;;5034314;28;20029;-75
2022/09/29 10:32:26;;;;;;;11.23;6.45;;;30.50;75.00;;;;;;5034004;28;20471;-75
2022/09/29 10:35:15;;;;;;;10.05;5.25;;;30.50;75.60;;;;;;5033135;28;20030;-76
2022/09/29 10:37:45;;;;;;;5.38;4.00;;;30.70;77.30;;;;;;5034554;28;20029;-75
2022/09/29 10:40:10;;;;;;;9.48;4.80;;;31.20;72.60;;;;;;5034186;28;20029;-75
2022/09/29 10:42:39;;;;;;;7.15;4.32;;;31.50;74.60;;;;;;5033825;28;20033;-75
2022/09/29 10:45:15;;;;;;;6.50;4.25;;;31.70;72.50;;;;;;5032709;28;20426;-75
2022/09/29 10:47:48;;;;;;;5.75;3.40;;;32.00;73.50;;;;;;5045233;28;20115;-75
2022/09/29 10:50:19;;;;;;;5.13;2.92;;;31.90;70.80;;;;;;5045062;28;20045;-75
2022/09/29 10:52:51;;;;;;;1.92;1.42;;;32.00;70.60;;;;;;5032704;28;20037;-74
2022/09/29 10:55:21;;;;;;;5.13;2.20;;;32.10;65.90;;;;;;5033384;28;20124;-74
2022/09/29 10:57:47;;;;;;;2.05;1.90;;;32.30;69.50;;;;;;5033327;28;20021;-75
2022/09/29 11:00:35;;;;;;;5.45;2.80;;;32.30;68.00;;;;;;5033272;28;20033;-75
2022/09/29 11:03:27;;;;;;;4.38;2.60;;;32.40;68.30;;;;;;5040896;28;20041;-75
2022/09/29 11:06:06;;;;;;;4.15;2.60;;;32.60;65.50;;;;;;5030204;28;20044;-75
2022/09/29 11:08:32;;;;;;;3.25;2.65;;;32.50;66.80;;;;;;5033096;28;20022;-75
2022/09/29 11:11:21;;;;;;;4.55;2.97;;;32.30;67.50;;;;;;5033407;28;20056;-75
2022/09/29 11:13:47;;;;;;;4.07;2.70;;;32.10;68.20;;;;;;5033227;28;20032;-75
2022/09/29 11:16:16;;;;;;;4.20;2.70;;;32.00;67.60;;;;;;5033231;28;20032;-74
2022/09/29 11:18:45;;;;;;;3.88;1.92;;;31.80;67.00;;;;;;5032753;28;20171;-75
2022/09/29 11:21:20;;;;;;;4.13;2.30;;;31.60;69.00;;;;;;5032896;28;20104;-74
2022/09/29 11:23:58;;;;;;;3.65;2.15;;;31.60;68.80;;;;;;5031409;28;20052;-74
2022/09/29 11:26:42;;;;;;;3.05;2.05;;;31.40;67.50;;;;;;5032583;28;20037;-75
2022/09/29 11:29:32;;;;;;;3.35;1.60;;;31.10;66.80;;;;;;5017852;28;20033;-74
2022/09/29 11:32:13;;;;;;;1.70;1.55;;;30.90;68.00;;;;;;5027000;28;20037;-74
2022/09/29 11:34:59;;;;;;;2.38;1.73;;;30.70;67.30;;;;;;5031697;28;20437;-74
2022/09/29 11:37:35;;;;;;;4.05;2.15;;;30.60;67.60;;;;;;5032479;28;20045;-74
2022/09/29 11:40:13;;;;;;;4.18;2.42;;;30.40;67.60;;;;;;5047046;28;20029;-74
2022/09/29 11:43:02;;;;;;;3.53;2.00;;;30.40;66.60;;;;;;5024974;28;20579;-74
2022/09/29 11:45:55;;;;;;;2.65;1.80;;;30.30;68.20;;;;;;5033067;28;20083;-74
2022/09/29 11:48:29;;;;;;;1.45;1.35;;;30.20;67.20;;;;;;5032406;28;20084;-73
2022/09/29 11:51:10;;;;;;;3.05;1.65;;;30.10;67.40;;;;;;5032516;28;20083;-73
2022/09/29 11:53:55;;;;;;;2.13;1.60;;;29.90;70.00;;;;;;5032395;28;20036;-74
2022/09/29 11:56:36;;;;;;;2.67;1.52;;;30.10;67.90;;;;;;5032590;28;20419;-73
2022/09/29 11:59:13;;;;;;;3.90;1.50;;;30.00;67.00;;;;;;5032721;28;20029;-73
2022/09/29 12:01:55;;;;;;;8.02;3.58;;;29.30;68.20;;;;;;5028014;28;20475;-73
2022/09/29 12:04:47;;;;;;;3.00;1.80;;;28.60;69.20;;;;;;5032302;28;20041;-73
2022/09/29 12:07:29;;;;;;;2.75;1.88;;;28.00;68.10;;;;;;5031462;28;20451;-73
2022/09/29 12:10:22;;;;;;;2.25;1.73;;;27.90;68.80;;;;;;5032212;28;20026;-74
2022/09/29 12:13:19;;;;;;;3.38;2.63;;;27.80;69.30;;;;;;5032324;28;20044;-73
2022/09/29 12:15:54;;;;;;;4.10;2.30;;;27.80;70.90;;;;;;5032204;28;20095;-73
2022/09/29 12:18:44;;;;;;;3.47;2.40;;;27.40;70.00;;;;;;5031403;28;20021;-73
2022/09/29 12:21:12;;;;;;;4.53;1.73;;;26.80;72.20;;;;;;5031987;28;20043;-73
2022/09/29 12:23:41;;;;;;;2.75;1.70;;;26.20;72.20;;;;;;5030846;28;20220;-73
2022/09/29 12:26:18;;;;;;;4.03;2.60;;;25.60;71.90;;;;;;5029593;28;20026;-73
2022/09/29 12:29:28;;;;;;;3.88;1.98;;;25.00;73.00;;;;;;5030585;28;20021;-73
2022/09/29 12:31:57;;;;;;;5.75;2.35;;;24.40;75.70;;;;;;5030519;28;20069;-73
2022/09/29 12:34:43;;;;;;;3.30;1.90;;;23.90;76.30;;;;;;5028499;28;20037;-73
2022/09/29 12:37:32;;;;;;;7.30;2.20;;;24.00;79.00;;;;;;5030084;28;20060;-73
2022/09/29 12:40:21;;;;;;;3.38;1.60;;;23.90;79.80;;;;;;5031928;28;20035;-73
2022/09/29 12:43:07;;;;;;;2.65;1.80;;;23.60;78.50;;;;;;5021528;28;20610;-73
2022/09/29 12:45:45;;;;;;;4.43;1.75;;;23.30;76.40;;;;;;5031534;28;20132;-73
2022/09/29 12:48:31;;;;;;;2.85;2.00;;;22.90;78.80;;;;;;5031568;28;20029;-73
2022/09/29 12:51:08;;;;;;;1.70;1.35;;;22.60;77.40;;;;;;5031464;28;20042;-73
2022/09/29 12:53:42;;;;;;;1.83;1.25;;;22.50;81.20;;;;;;5032002;28;20079;-73
2022/09/29 12:56:37;;;;;;;4.40;1.98;;;22.60;80.00;;;;;;5015310;28;20364;-72
2022/09/29 12:59:12;;;;;;;1.42;0.90;;;22.60;78.80;;;;;;5023731;28;20038;-73
2022/09/29 13:01:39;;;;;;;6.15;2.15;;;22.60;80.60;;;;;;5021710;28;20030;-73
2022/09/29 13:04:30;;;;;;;3.85;1.27;;;22.50;84.60;;;;;;5031581;28;20043;-71
2022/09/29 13:07:32;;;;;;;3.40;1.52;;;22.50;86.90;;;;;;5020083;28;20046;-72
2022/09/29 13:10:24;;;;;;;7.65;1.90;;;22.60;87.10;;;;;;5030770;28;20128;-73